createdAt,value
2022-10-11T00:00:02.548Z,19.90
2022-10-11T00:00:37.142Z,20.48
2022-10-11T00:01:09.947Z,18.58
2022-10-11T00:01:24.477Z,19.48
2022-10-11T00:01:38.551Z,18.48
2022-10-11T00:01:51.167Z,17.05
2022-10-11T00:02:03.931Z,18.38
2022-10-11T00:02:16.998Z,17.83
2022-10-11T00:02:29.749Z,18.65
2022-10-11T00:02:43.362Z,17.60
2022-10-11T00:02:55.956Z,18.58
2022-10-11T00:03:08.569Z,20.45
2022-10-11T00:03:21.607Z,19.05
2022-10-11T00:03:34.260Z,20.63
2022-10-11T00:03:46.929Z,21.25
2022-10-11T00:03:59.567Z,20.77
2022-10-11T00:04:12.412Z,21.42
2022-10-11T00:04:26.124Z,20.23
2022-10-11T00:04:38.810Z,21.90
2022-10-11T00:04:51.583Z,23.35
2022-10-11T00:05:04.745Z,20.98
2022-10-11T00:05:17.753Z,19.65
2022-10-11T00:05:30.613Z,20.27
2022-10-11T00:05:44.166Z,21.13
2022-10-11T00:05:57.979Z,20.77
2022-10-11T00:06:10.591Z,19.63
2022-10-11T00:06:23.254Z,20.92
2022-10-11T00:06:37.938Z,20.23
2022-10-11T00:06:50.544Z,19.20
2022-10-11T00:07:03.197Z,20.13
2022-10-11T00:07:15.866Z,19.73
2022-10-11T00:07:29.902Z,19.17
2022-10-11T00:07:42.835Z,19.25
2022-10-11T00:07:55.833Z,20.42
2022-10-11T00:08:08.414Z,19.35
2022-10-11T00:08:21.144Z,19.27
2022-10-11T00:08:33.736Z,20.48
2022-10-11T00:08:47.338Z,20.45
2022-10-11T00:08:59.973Z,19.10
2022-10-11T00:09:12.687Z,19.73
2022-10-11T00:09:25.363Z,20.42
2022-10-11T00:09:38.122Z,20.70
2022-10-11T00:09:50.695Z,22.10
2022-10-11T00:10:05.554Z,22.48
2022-10-11T00:10:18.799Z,19.58
2022-10-11T00:10:31.549Z,18.90
2022-10-11T00:10:44.824Z,19.02
2022-10-11T00:10:58.853Z,18.33
2022-10-11T00:11:11.814Z,18.45
2022-10-11T00:11:24.425Z,18.27
2022-10-11T00:11:37.335Z,17.80
2022-10-11T00:11:50.951Z,19.75
2022-10-11T00:12:04.264Z,20.08
2022-10-11T00:12:16.858Z,18.85
2022-10-11T00:12:29.672Z,19.90
2022-10-11T00:12:42.500Z,20.52
2022-10-11T00:12:55.221Z,20.42
2022-10-11T00:13:08.700Z,19.92
2022-10-11T00:13:22.297Z,21.35
2022-10-11T00:13:35.552Z,21.70
2022-10-11T00:13:48.339Z,20.05
2022-10-11T00:14:00.964Z,19.83
2022-10-11T00:14:13.566Z,20.08
2022-10-11T00:14:28.052Z,20.05
2022-10-11T00:14:40.715Z,19.42
2022-10-11T00:14:53.330Z,18.23
2022-10-11T00:15:08.226Z,19.10
2022-10-11T00:15:22.126Z,21.90
2022-10-11T00:15:35.273Z,22.13
2022-10-11T00:15:49.569Z,19.70
2022-10-11T00:16:08.355Z,19.58
2022-10-11T00:16:22.474Z,22.55
2022-10-11T00:16:35.584Z,21.88
2022-10-11T00:16:49.619Z,19.83
2022-10-11T00:17:02.302Z,19.48
2022-10-11T00:17:14.951Z,20.35
2022-10-11T00:17:27.572Z,19.88
2022-10-11T00:17:40.390Z,19.85
2022-10-11T00:17:53.985Z,20.77
2022-10-11T00:18:07.238Z,22.05
2022-10-11T00:18:20.195Z,22.08
2022-10-11T00:18:32.809Z,22.85
2022-10-11T00:18:45.436Z,23.10
2022-10-11T00:18:58.057Z,24.17
2022-10-11T00:19:11.243Z,22.80
2022-10-11T00:19:24.902Z,22.48
2022-10-11T00:19:37.503Z,22.67
2022-10-11T00:19:50.410Z,21.17
2022-10-11T00:20:03.132Z,20.20
2022-10-11T00:20:16.081Z,19.48
2022-10-11T00:20:28.762Z,20.83
2022-10-11T00:20:42.383Z,22.27
2022-10-11T00:21:02.059Z,22.05
2022-10-11T00:21:16.113Z,21.13
2022-10-11T00:21:28.736Z,21.08
2022-10-11T00:21:41.406Z,20.20
2022-10-11T00:21:54.028Z,20.05
2022-10-11T00:22:07.620Z,20.63
2022-10-11T00:22:20.241Z,20.52
2022-10-11T00:22:33.005Z,19.77
2022-10-11T00:22:45.847Z,18.83
2022-10-11T00:22:58.446Z,19.60
2022-10-11T00:23:11.043Z,21.65
2022-10-11T00:23:23.645Z,21.15
2022-10-11T00:23:36.436Z,19.73
2022-10-11T00:23:50.616Z,19.42
2022-10-11T00:24:03.519Z,21.02
2022-10-11T00:24:16.906Z,21.52
2022-10-11T00:24:29.525Z,21.88
2022-10-11T00:24:42.188Z,20.38
2022-10-11T00:24:54.776Z,20.42
2022-10-11T00:25:09.398Z,20.40
2022-10-11T00:25:22.994Z,20.55
2022-10-11T00:25:35.657Z,19.58
2022-10-11T00:25:56.997Z,20.83
2022-10-11T00:26:10.950Z,23.23
2022-10-11T00:26:23.583Z,21.35
2022-10-11T00:26:36.160Z,20.80
2022-10-11T00:26:49.791Z,20.38
2022-10-11T00:27:02.400Z,20.67
2022-10-11T00:27:15.021Z,20.27
2022-10-11T00:27:27.667Z,20.75
2022-10-11T00:27:40.243Z,21.92
2022-10-11T00:27:53.031Z,21.67
2022-10-11T00:28:05.694Z,21.38
2022-10-11T00:28:19.359Z,20.70
2022-10-11T00:28:32.749Z,20.40
2022-10-11T00:28:45.412Z,20.08
2022-10-11T00:28:58.040Z,21.92
2022-10-11T00:29:11.882Z,22.35
2022-10-11T00:29:25.710Z,22.15
2022-10-11T00:29:38.542Z,22.27
2022-10-11T00:29:51.159Z,21.67
2022-10-11T00:30:04.902Z,20.02
2022-10-11T00:30:17.667Z,19.17
2022-10-11T00:30:30.323Z,20.95
2022-10-11T00:30:43.806Z,22.83
2022-10-11T00:30:56.499Z,22.55
2022-10-11T00:31:11.828Z,20.60
2022-10-11T00:31:24.590Z,19.75
2022-10-11T00:31:37.162Z,19.67
2022-10-11T00:31:51.196Z,18.20
2022-10-11T00:32:04.113Z,19.17
2022-10-11T00:32:17.842Z,19.60
2022-10-11T00:32:30.513Z,19.98
2022-10-11T00:32:43.140Z,19.77
2022-10-11T00:32:55.962Z,23.50
2022-10-11T00:33:08.552Z,23.50
2022-10-11T00:33:21.274Z,23.17
2022-10-11T00:33:34.010Z,24.52
2022-10-11T00:33:47.664Z,27.60
2022-10-11T00:34:00.290Z,30.13
2022-10-11T00:34:13.372Z,25.55
2022-10-11T00:34:25.996Z,22.52
2022-10-11T00:34:38.595Z,21.88
2022-10-11T00:34:51.212Z,22.45
2022-10-11T00:35:04.803Z,22.52
2022-10-11T00:35:18.645Z,22.60
2022-10-11T00:35:31.340Z,19.20
2022-10-11T00:35:44.113Z,18.83
2022-10-11T00:35:59.050Z,20.58
2022-10-11T00:36:14.402Z,21.55
2022-10-11T00:36:27.493Z,20.65
2022-10-11T00:36:40.088Z,21.02
2022-10-11T00:36:53.707Z,21.33
2022-10-11T00:37:06.329Z,21.88
2022-10-11T00:37:19.172Z,23.70
2022-10-11T00:37:31.810Z,23.80
2022-10-11T00:37:44.488Z,22.30
2022-10-11T00:37:57.465Z,23.23
2022-10-11T00:38:10.061Z,20.50
2022-10-11T00:38:22.686Z,19.92
2022-10-11T00:38:36.515Z,18.92
2022-10-11T00:38:49.428Z,19.50
2022-10-11T00:39:02.026Z,19.73
2022-10-11T00:39:14.718Z,19.85
2022-10-11T00:39:27.302Z,20.10
2022-10-11T00:39:39.935Z,23.52
2022-10-11T00:39:52.578Z,23.92
2022-10-11T00:40:08.382Z,22.10
2022-10-11T00:40:21.310Z,22.80
2022-10-11T00:40:34.001Z,21.92
2022-10-11T00:40:46.587Z,22.95
2022-10-11T00:40:59.648Z,22.73
2022-10-11T00:41:13.039Z,22.08
2022-10-11T00:41:25.733Z,20.60
2022-10-11T00:41:39.352Z,19.85
2022-10-11T00:41:52.038Z,21.15
2022-10-11T00:42:04.785Z,24.20
2022-10-11T00:42:17.819Z,24.02
2022-10-11T00:42:30.410Z,22.05
2022-10-11T00:42:43.310Z,21.38
2022-10-11T00:42:55.919Z,20.88
2022-10-11T00:43:17.835Z,20.77
2022-10-11T00:43:32.367Z,21.45
2022-10-11T00:43:45.364Z,21.45
2022-10-11T00:44:15.600Z,20.20
2022-10-11T00:44:31.141Z,20.10
2022-10-11T00:44:46.805Z,22.08
2022-10-11T00:45:32.447Z,23.08
2022-10-11T00:46:04.432Z,22.35
2022-10-11T00:46:31.983Z,22.83
2022-10-11T00:46:53.629Z,23.08
2022-10-11T00:47:15.514Z,25.17
2022-10-11T00:47:28.102Z,22.73
2022-10-11T00:47:42.553Z,21.67
2022-10-11T00:47:56.768Z,21.08
2022-10-11T00:48:15.770Z,21.60
2022-10-11T00:48:36.484Z,21.95
2022-10-11T00:48:53.897Z,22.15
2022-10-11T00:49:14.227Z,21.33
2022-10-11T00:49:35.223Z,24.58
2022-10-11T00:49:52.999Z,23.75
2022-10-11T00:50:10.901Z,21.25
2022-10-11T00:50:24.581Z,21.95
2022-10-11T00:50:37.669Z,21.08
2022-10-11T00:50:50.530Z,21.98
2022-10-11T00:51:08.067Z,22.23
2022-10-11T00:51:27.064Z,21.38
2022-10-11T00:51:45.561Z,23.05
2022-10-11T00:52:02.022Z,25.42
2022-10-11T00:52:19.767Z,24.77
2022-10-11T00:52:37.862Z,24.77
2022-10-11T00:52:56.400Z,25.52
2022-10-11T00:53:12.089Z,25.67
2022-10-11T00:53:26.185Z,23.60
2022-10-11T00:53:39.199Z,25.38
2022-10-11T00:53:52.966Z,26.65
2022-10-11T00:54:08.329Z,25.48
2022-10-11T00:54:25.597Z,24.67
2022-10-11T00:54:41.668Z,27.92
2022-10-11T00:54:54.400Z,26.45
2022-10-11T00:55:10.640Z,23.33
2022-10-11T00:55:28.321Z,24.13
2022-10-11T00:55:48.060Z,27.35
2022-10-11T00:56:04.859Z,27.42
2022-10-11T00:56:23.750Z,26.88
2022-10-11T00:56:39.507Z,27.10
2022-10-11T00:56:56.952Z,29.10
2022-10-11T00:57:15.518Z,28.42
2022-10-11T00:57:31.654Z,24.85
2022-10-11T00:57:48.512Z,25.48
2022-10-11T00:58:01.529Z,23.27
2022-10-11T00:58:14.890Z,22.55
2022-10-11T00:58:27.706Z,24.52
2022-10-11T00:58:41.448Z,26.20
2022-10-11T00:58:56.293Z,26.25
2022-10-11T00:59:14.002Z,25.40
2022-10-11T00:59:29.673Z,24.05
2022-10-11T00:59:45.435Z,23.17
2022-10-11T00:59:58.803Z,23.85
2022-10-11T01:00:13.990Z,24.90
2022-10-11T01:00:26.665Z,24.23
2022-10-11T01:00:40.362Z,23.77
2022-10-11T01:00:54.219Z,23.98
2022-10-11T01:01:07.815Z,22.85
2022-10-11T01:01:20.574Z,24.65
2022-10-11T01:01:33.375Z,25.20
2022-10-11T01:01:46.101Z,25.50
2022-10-11T01:01:58.794Z,23.50
2022-10-11T01:02:15.516Z,25.08
2022-10-11T01:02:30.306Z,24.63
2022-10-11T01:02:43.640Z,21.80
2022-10-11T01:02:57.017Z,22.48
2022-10-11T01:03:09.650Z,22.98
2022-10-11T01:03:25.704Z,22.30
2022-10-11T01:03:40.389Z,21.75
2022-10-11T01:03:54.311Z,22.38
2022-10-11T01:04:06.976Z,22.67
2022-10-11T01:04:19.596Z,22.05
2022-10-11T01:04:32.964Z,22.05
2022-10-11T01:04:45.753Z,22.75
2022-10-11T01:05:25.109Z,22.20
2022-10-11T01:05:33.080Z,22.17
2022-10-11T01:05:46.266Z,22.05
2022-10-11T01:05:58.968Z,22.52
2022-10-11T01:06:11.775Z,21.75
2022-10-11T01:06:24.584Z,21.40
2022-10-11T01:06:37.332Z,21.85
2022-10-11T01:06:52.309Z,22.40
2022-10-11T01:07:04.947Z,23.00
2022-10-11T01:07:19.250Z,24.25
2022-10-11T01:07:33.458Z,22.30
2022-10-11T01:07:47.865Z,23.08
2022-10-11T01:08:00.887Z,23.20
2022-10-11T01:08:13.876Z,22.40
2022-10-11T01:08:28.919Z,21.95
2022-10-11T01:08:41.912Z,19.15
2022-10-11T01:08:54.863Z,20.48
2022-10-11T01:09:07.934Z,22.13
2022-10-11T01:09:22.475Z,23.75
2022-10-11T01:09:35.358Z,24.70
2022-10-11T01:09:48.029Z,21.85
2022-10-11T01:10:01.031Z,21.75
2022-10-11T01:10:15.290Z,22.45
2022-10-11T01:10:28.378Z,22.95
2022-10-11T01:10:41.045Z,23.58
2022-10-11T01:10:53.844Z,23.48
2022-10-11T01:11:07.196Z,21.27
2022-10-11T01:11:23.363Z,22.55
2022-10-11T01:11:38.269Z,22.80
2022-10-11T01:11:54.876Z,21.00
2022-10-11T01:12:15.062Z,21.17
2022-10-11T01:12:31.017Z,21.80
2022-10-11T01:12:54.782Z,20.20
2022-10-11T01:13:16.831Z,20.77
2022-10-11T01:13:42.573Z,20.02
2022-10-11T01:14:20.084Z,22.05
2022-10-11T01:14:54.425Z,19.63
2022-10-11T01:15:17.157Z,21.95
2022-10-11T01:15:33.822Z,20.73
2022-10-11T01:15:55.600Z,20.58
2022-10-11T01:16:14.394Z,22.15
2022-10-11T01:16:35.130Z,20.38
2022-10-11T01:16:55.326Z,21.05
2022-10-11T01:17:19.872Z,19.85
2022-10-11T01:17:40.377Z,21.55
2022-10-11T01:18:00.672Z,19.80
2022-10-11T01:18:19.815Z,19.95
2022-10-11T01:18:41.054Z,21.35
2022-10-11T01:19:05.898Z,23.75
2022-10-11T01:19:38.625Z,22.60
2022-10-11T01:20:30.647Z,20.42
2022-10-11T01:20:59.655Z,20.35
2022-10-11T01:21:22.019Z,20.70
2022-10-11T01:21:42.663Z,21.65
2022-10-11T01:22:08.503Z,20.17
2022-10-11T01:22:45.548Z,20.92
2022-10-11T01:23:37.748Z,20.23
2022-10-11T01:24:08.789Z,21.83
2022-10-11T01:25:02.594Z,20.83
2022-10-11T01:25:27.448Z,21.98
2022-10-11T01:25:58.695Z,21.50
2022-10-11T01:26:37.148Z,21.35
2022-10-11T01:27:18.190Z,20.45
2022-10-11T01:27:55.556Z,22.48
2022-10-11T01:28:23.099Z,23.15
2022-10-11T01:28:47.953Z,19.92
2022-10-11T01:29:11.719Z,21.52
2022-10-11T01:29:41.569Z,21.65
2022-10-11T01:30:05.103Z,20.85
2022-10-11T01:30:26.004Z,22.77
2022-10-11T01:30:39.248Z,21.85
2022-10-11T01:30:53.301Z,19.73
2022-10-11T01:31:14.018Z,20.10
2022-10-11T01:31:32.214Z,22.75
2022-10-11T01:31:53.446Z,23.48
2022-10-11T01:32:15.247Z,22.85
2022-10-11T01:32:33.723Z,23.60
2022-10-11T01:32:50.934Z,23.50
2022-10-11T01:33:15.505Z,20.55
2022-10-11T01:33:36.915Z,21.58
2022-10-11T01:33:54.869Z,21.80
2022-10-11T01:34:14.532Z,23.75
2022-10-11T01:34:32.630Z,22.35
2022-10-11T01:34:52.610Z,22.08
2022-10-11T01:35:13.128Z,21.73
2022-10-11T01:35:31.222Z,23.02
2022-10-11T01:35:49.259Z,22.60
2022-10-11T01:36:09.366Z,23.63
2022-10-11T01:36:28.840Z,24.70
2022-10-11T01:36:50.296Z,22.88
2022-10-11T01:37:09.465Z,23.60
2022-10-11T01:37:29.538Z,24.73
2022-10-11T01:37:46.485Z,26.13
2022-10-11T01:38:03.258Z,24.98
2022-10-11T01:38:22.491Z,26.52
2022-10-11T01:38:42.194Z,24.67
2022-10-11T01:38:59.589Z,22.67
2022-10-11T01:39:16.644Z,22.10
2022-10-11T01:39:34.134Z,23.92
2022-10-11T01:39:52.174Z,22.50
2022-10-11T01:40:10.912Z,24.27
2022-10-11T01:40:27.054Z,24.40
2022-10-11T01:40:44.438Z,24.08
2022-10-11T01:41:00.195Z,25.58
2022-10-11T01:41:16.751Z,24.95
2022-10-11T01:41:35.692Z,23.75
2022-10-11T01:41:52.658Z,24.88
2022-10-11T01:42:09.870Z,25.35
2022-10-11T01:42:23.991Z,24.70
2022-10-11T01:42:38.942Z,26.40
2022-10-11T01:42:54.876Z,25.55
2022-10-11T01:43:09.443Z,24.98
2022-10-11T01:43:24.683Z,28.40
2022-10-11T01:43:39.705Z,28.77
2022-10-11T01:43:57.148Z,24.80
2022-10-11T01:44:12.619Z,25.38
2022-10-11T01:44:26.756Z,27.35
2022-10-11T01:44:45.008Z,28.73
2022-10-11T01:44:59.376Z,27.42
2022-10-11T01:45:16.232Z,26.05
2022-10-11T01:45:31.306Z,25.58
2022-10-11T01:45:48.768Z,23.92
2022-10-11T01:46:03.372Z,28.00
2022-10-11T01:46:19.197Z,29.85
2022-10-11T01:46:33.257Z,26.83
2022-10-11T01:46:45.860Z,25.13
2022-10-11T01:46:58.434Z,24.05
2022-10-11T01:47:11.043Z,24.02
2022-10-11T01:47:26.096Z,24.52
2022-10-11T01:47:39.162Z,26.98
2022-10-11T01:48:02.383Z,26.73
2022-10-11T01:48:14.998Z,24.23
2022-10-11T01:48:27.711Z,24.83
2022-10-11T01:48:48.218Z,23.88
2022-10-11T01:49:02.572Z,23.98
2022-10-11T01:49:16.204Z,25.90
2022-10-11T01:49:28.822Z,27.02
2022-10-11T01:49:42.009Z,26.30
2022-10-11T01:49:56.664Z,25.70
2022-10-11T01:50:35.205Z,24.60
2022-10-11T01:50:51.232Z,25.70
2022-10-11T01:51:04.130Z,27.95
2022-10-11T01:51:19.705Z,29.13
2022-10-11T01:51:37.305Z,25.20
2022-10-11T01:51:52.843Z,24.27
2022-10-11T01:52:07.236Z,25.08
2022-10-11T01:52:21.489Z,23.35
2022-10-11T01:52:39.668Z,23.95
2022-10-11T01:52:52.536Z,25.83
2022-10-11T01:53:20.232Z,24.45
2022-10-11T01:54:00.188Z,25.08
2022-10-11T01:54:27.720Z,26.23
2022-10-11T01:55:09.156Z,23.90
2022-10-11T01:55:28.725Z,29.58
2022-10-11T01:55:49.938Z,27.13
2022-10-11T01:56:16.788Z,24.60
2022-10-11T01:56:42.602Z,25.70
2022-10-11T01:57:30.362Z,27.88
2022-10-11T01:57:55.191Z,25.95
2022-10-11T01:58:19.495Z,27.42
2022-10-11T01:58:45.630Z,26.10
2022-10-11T01:59:12.479Z,26.10
2022-10-11T01:59:41.234Z,25.38
2022-10-11T02:00:03.441Z,28.85
2022-10-11T02:00:19.437Z,30.83
2022-10-11T02:00:42.160Z,28.05
2022-10-11T02:01:01.861Z,26.50
2022-10-11T02:01:24.131Z,28.05
2022-10-11T02:01:49.266Z,30.17
2022-10-11T02:02:15.301Z,28.25
2022-10-11T02:02:40.964Z,27.70
2022-10-11T02:03:08.767Z,31.08
2022-10-11T02:03:32.070Z,31.90
2022-10-11T02:03:50.547Z,29.65
2022-10-11T02:04:09.666Z,30.23
2022-10-11T02:04:31.016Z,29.65
2022-10-11T02:04:47.583Z,31.45
2022-10-11T02:05:08.868Z,31.10
2022-10-11T02:05:29.666Z,30.73
2022-10-11T02:05:48.556Z,29.25
2022-10-11T02:06:09.743Z,28.88
2022-10-11T02:06:33.163Z,32.20
2022-10-11T02:06:53.450Z,31.17
2022-10-11T02:07:12.477Z,28.20
2022-10-11T02:07:33.629Z,30.80
2022-10-11T02:07:54.213Z,33.40
2022-10-11T02:08:16.097Z,32.00
2022-10-11T02:08:38.676Z,33.42
2022-10-11T02:08:57.810Z,35.65
2022-10-11T02:09:18.732Z,31.85
2022-10-11T02:09:36.470Z,31.77
2022-10-11T02:09:58.519Z,31.60
2022-10-11T02:10:17.030Z,31.77
2022-10-11T02:10:35.097Z,32.33
2022-10-11T02:10:54.107Z,32.63
2022-10-11T02:11:13.798Z,36.30
2022-10-11T02:11:29.982Z,36.55
2022-10-11T02:11:43.146Z,32.80
2022-10-11T02:12:01.236Z,30.80
2022-10-11T02:12:24.636Z,31.45
2022-10-11T02:12:43.250Z,30.40
2022-10-11T02:13:02.491Z,31.15
2022-10-11T02:13:22.310Z,32.30
2022-10-11T02:13:39.904Z,32.85
2022-10-11T02:13:58.746Z,34.45
2022-10-11T02:14:15.621Z,35.38
2022-10-11T02:14:34.603Z,37.92
2022-10-11T02:14:51.804Z,34.13
2022-10-11T02:15:09.361Z,32.22
2022-10-11T02:15:23.952Z,33.03
2022-10-11T02:15:41.270Z,33.30
2022-10-11T02:15:56.236Z,33.42
2022-10-11T02:16:12.917Z,33.47
2022-10-11T02:16:37.148Z,34.30
2022-10-11T02:16:55.892Z,32.70
2022-10-11T02:17:12.249Z,33.67
2022-10-11T02:17:31.044Z,35.17
2022-10-11T02:17:47.334Z,36.85
2022-10-11T02:18:03.686Z,35.42
2022-10-11T02:18:21.886Z,33.35
2022-10-11T02:18:38.163Z,35.55
2022-10-11T02:18:54.645Z,34.75
2022-10-11T02:19:09.218Z,36.63
2022-10-11T02:19:26.480Z,36.78
2022-10-11T02:19:42.843Z,34.13
2022-10-11T02:20:00.138Z,32.28
2022-10-11T02:20:18.493Z,33.65
2022-10-11T02:20:34.558Z,34.28
2022-10-11T02:20:48.943Z,32.90
2022-10-11T02:21:05.980Z,31.70
2022-10-11T02:21:20.898Z,30.98
2022-10-11T02:21:37.294Z,31.42
2022-10-11T02:21:54.686Z,31.92
2022-10-11T02:22:13.612Z,34.03
2022-10-11T02:22:30.668Z,34.60
2022-10-11T02:22:46.732Z,34.90
2022-10-11T02:23:06.086Z,33.58
2022-10-11T02:23:23.744Z,32.13
2022-10-11T02:23:41.360Z,31.85
2022-10-11T02:23:58.596Z,32.80
2022-10-11T02:24:16.863Z,32.50
2022-10-11T02:24:33.774Z,33.65
2022-10-11T02:24:51.332Z,35.38
2022-10-11T02:25:09.191Z,34.67
2022-10-11T02:25:26.576Z,33.88
2022-10-11T02:25:39.286Z,32.63
2022-10-11T02:25:52.708Z,32.90
2022-10-11T02:26:07.145Z,33.85
2022-10-11T02:26:23.097Z,33.03
2022-10-11T02:26:40.216Z,33.40
2022-10-11T02:26:55.836Z,31.67
2022-10-11T02:27:10.694Z,32.30
2022-10-11T02:27:26.770Z,33.10
2022-10-11T02:27:42.640Z,32.97
2022-10-11T02:27:59.582Z,33.00
2022-10-11T02:28:16.523Z,33.08
2022-10-11T02:28:33.957Z,29.73
2022-10-11T02:28:48.239Z,30.40
2022-10-11T02:29:05.180Z,33.22
2022-10-11T02:29:18.457Z,33.40
2022-10-11T02:29:34.502Z,32.67
2022-10-11T02:29:51.714Z,30.85
2022-10-11T02:30:07.487Z,32.55
2022-10-11T02:30:20.281Z,30.90
2022-10-11T02:30:34.988Z,28.92
2022-10-11T02:30:50.487Z,28.73
2022-10-11T02:31:06.890Z,31.05
2022-10-11T02:31:22.558Z,35.10
2022-10-11T02:31:36.588Z,35.10
2022-10-11T02:31:51.570Z,33.03
2022-10-11T02:32:05.858Z,32.83
2022-10-11T02:32:20.346Z,32.22
2022-10-11T02:32:33.766Z,30.98
2022-10-11T02:32:48.919Z,31.20
2022-10-11T02:33:06.549Z,32.33
2022-10-11T02:33:26.193Z,31.55
2022-10-11T02:33:43.811Z,30.83
2022-10-11T02:34:00.464Z,29.83
2022-10-11T02:34:16.790Z,27.95
2022-10-11T02:34:33.654Z,30.42
2022-10-11T02:34:52.701Z,31.05
2022-10-11T02:35:06.783Z,29.77
2022-10-11T02:35:20.222Z,30.17
2022-10-11T02:35:40.930Z,30.55
2022-10-11T02:35:59.100Z,28.88
2022-10-11T02:36:16.050Z,32.17
2022-10-11T02:36:41.320Z,31.23
2022-10-11T02:37:02.842Z,32.20
2022-10-11T02:37:21.260Z,30.33
2022-10-11T02:37:42.168Z,27.52
2022-10-11T02:38:02.642Z,30.63
2022-10-11T02:38:22.016Z,28.65
2022-10-11T02:38:40.337Z,30.40
2022-10-11T02:38:59.348Z,31.83
2022-10-11T02:39:17.416Z,29.77
2022-10-11T02:39:37.104Z,27.42
2022-10-11T02:39:57.963Z,28.70
2022-10-11T02:40:16.074Z,31.35
2022-10-11T02:40:32.446Z,29.60
2022-10-11T02:40:48.043Z,29.65
2022-10-11T02:41:11.010Z,29.58
2022-10-11T02:41:27.844Z,27.50
2022-10-11T02:41:43.232Z,27.77
2022-10-11T02:42:00.046Z,26.40
2022-10-11T02:42:17.543Z,26.38
2022-10-11T02:42:36.481Z,27.45
2022-10-11T02:42:54.776Z,28.13
2022-10-11T02:43:13.453Z,28.15
2022-10-11T02:43:33.345Z,27.45
2022-10-11T02:43:50.714Z,29.38
2022-10-11T02:44:08.281Z,28.83
2022-10-11T02:44:29.946Z,28.92
2022-10-11T02:44:46.954Z,30.52
2022-10-11T02:45:05.086Z,29.77
2022-10-11T02:45:22.101Z,27.60
2022-10-11T02:45:39.242Z,29.88
2022-10-11T02:45:56.686Z,30.13
2022-10-11T02:46:10.452Z,27.83
2022-10-11T02:46:25.391Z,28.90
2022-10-11T02:46:39.746Z,28.98
2022-10-11T02:46:52.675Z,27.50
2022-10-11T02:47:06.020Z,27.27
2022-10-11T02:47:19.048Z,28.25
2022-10-11T02:47:32.728Z,27.75
2022-10-11T02:47:47.089Z,27.33
2022-10-11T02:48:01.750Z,30.35
2022-10-11T02:48:15.800Z,32.00
2022-10-11T02:48:29.457Z,29.85
2022-10-11T02:48:42.652Z,30.20
2022-10-11T02:48:55.344Z,29.20
2022-10-11T02:49:08.903Z,28.70
2022-10-11T02:49:22.950Z,28.30
2022-10-11T02:49:36.256Z,28.58
2022-10-11T02:49:48.874Z,28.42
2022-10-11T02:50:02.134Z,29.13
2022-10-11T02:50:16.122Z,29.35
2022-10-11T02:50:29.094Z,29.25
2022-10-11T02:50:42.877Z,28.52
2022-10-11T02:50:57.648Z,28.30
2022-10-11T02:51:13.613Z,29.40
2022-10-11T02:51:27.162Z,30.48
2022-10-11T02:51:39.830Z,31.40
2022-10-11T02:51:54.872Z,29.67
2022-10-11T02:52:07.658Z,26.08
2022-10-11T02:52:21.410Z,28.33
2022-10-11T02:52:34.010Z,30.23
2022-10-11T02:52:46.618Z,30.27
2022-10-11T02:52:59.279Z,29.55
2022-10-11T02:53:12.236Z,30.20
2022-10-11T02:53:26.640Z,29.63
2022-10-11T02:53:39.293Z,28.13
2022-10-11T02:53:52.947Z,29.13
2022-10-11T02:54:06.134Z,29.73
2022-10-11T02:54:18.752Z,29.25
2022-10-11T02:54:31.547Z,30.98
2022-10-11T02:54:44.166Z,32.50
2022-10-11T02:54:56.802Z,31.05
2022-10-11T02:55:10.787Z,28.23
2022-10-11T02:55:24.427Z,27.65
2022-10-11T02:55:37.393Z,30.08
2022-10-11T02:55:52.022Z,29.88
2022-10-11T02:56:05.229Z,28.65
2022-10-11T02:56:18.058Z,28.08
2022-10-11T02:56:30.659Z,27.63
2022-10-11T02:56:44.314Z,27.45
2022-10-11T02:56:57.022Z,27.63
2022-10-11T02:57:09.639Z,26.98
2022-10-11T02:57:22.298Z,28.02
2022-10-11T02:57:34.908Z,29.60
2022-10-11T02:57:47.583Z,28.60
2022-10-11T02:58:00.524Z,28.10
2022-10-11T02:58:14.391Z,28.20
2022-10-11T02:58:27.028Z,30.10
2022-10-11T02:58:39.739Z,31.20
2022-10-11T02:58:52.371Z,28.75
2022-10-11T02:59:04.924Z,27.63
2022-10-11T02:59:17.568Z,26.42
2022-10-11T02:59:30.170Z,27.67
2022-10-11T02:59:42.756Z,30.10
2022-10-11T02:59:56.467Z,30.42
2022-10-11T03:00:10.213Z,29.38
2022-10-11T03:00:22.856Z,27.58
2022-10-11T03:00:35.509Z,25.38
2022-10-11T03:00:48.205Z,26.13
2022-10-11T03:01:02.252Z,28.83
2022-10-11T03:01:16.491Z,28.85
2022-10-11T03:01:29.187Z,27.17
2022-10-11T03:01:42.141Z,27.23
2022-10-11T03:01:54.878Z,28.23
2022-10-11T03:02:07.678Z,29.35
2022-10-11T03:02:20.350Z,30.33
2022-10-11T03:02:33.057Z,27.80
2022-10-11T03:02:45.708Z,26.83
2022-10-11T03:02:59.298Z,27.95
2022-10-11T03:03:12.253Z,28.92
2022-10-11T03:03:25.046Z,27.10
2022-10-11T03:03:37.616Z,26.05
2022-10-11T03:03:50.731Z,26.10
2022-10-11T03:04:03.372Z,26.65
2022-10-11T03:04:16.038Z,29.50
2022-10-11T03:04:29.642Z,30.13
2022-10-11T03:04:42.274Z,27.15
2022-10-11T03:04:54.850Z,26.13
2022-10-11T03:05:08.166Z,28.00
2022-10-11T03:05:21.118Z,28.35
2022-10-11T03:05:40.375Z,29.58
2022-10-11T03:05:58.415Z,28.75
2022-10-11T03:06:11.063Z,25.73
2022-10-11T03:06:25.163Z,26.85
2022-10-11T03:06:37.834Z,29.70
2022-10-11T03:06:50.445Z,30.20
2022-10-11T03:07:03.071Z,31.38
2022-10-11T03:07:15.684Z,30.90
2022-10-11T03:07:28.294Z,27.92
2022-10-11T03:07:40.920Z,25.77
2022-10-11T03:07:53.548Z,26.30
2022-10-11T03:08:07.433Z,26.90
2022-10-11T03:08:20.034Z,26.38
2022-10-11T03:08:33.100Z,26.73
2022-10-11T03:08:45.707Z,26.70
2022-10-11T03:08:58.316Z,27.80
2022-10-11T03:09:10.942Z,26.45
2022-10-11T03:09:23.575Z,25.65
2022-10-11T03:09:37.197Z,25.50
2022-10-11T03:09:49.786Z,27.88
2022-10-11T03:10:02.880Z,27.80
2022-10-11T03:10:15.552Z,28.95
2022-10-11T03:10:28.298Z,29.27
2022-10-11T03:10:41.388Z,27.13
2022-10-11T03:10:54.074Z,28.13
2022-10-11T03:11:06.938Z,27.67
2022-10-11T03:11:19.550Z,26.70
2022-10-11T03:11:32.187Z,28.55
2022-10-11T03:11:45.789Z,29.20
2022-10-11T03:11:58.402Z,27.40
2022-10-11T03:12:11.108Z,26.67
2022-10-11T03:12:23.778Z,28.05
2022-10-11T03:12:36.430Z,30.48
2022-10-11T03:12:49.026Z,31.33
2022-10-11T03:13:01.840Z,29.42
2022-10-11T03:13:18.352Z,26.67
2022-10-11T03:13:31.216Z,27.38
2022-10-11T03:13:44.043Z,28.08
2022-10-11T03:13:56.644Z,27.67
2022-10-11T03:14:09.259Z,26.20
2022-10-11T03:14:21.970Z,25.58
2022-10-11T03:14:34.574Z,24.70
2022-10-11T03:14:48.169Z,23.92
2022-10-11T03:15:00.835Z,25.48
2022-10-11T03:15:13.934Z,26.80
2022-10-11T03:15:26.626Z,27.65
2022-10-11T03:15:39.286Z,28.85
2022-10-11T03:16:02.782Z,27.77
2022-10-11T03:16:18.676Z,26.92
2022-10-11T03:16:31.275Z,26.50
2022-10-11T03:16:43.917Z,27.10
2022-10-11T03:17:00.756Z,28.30
2022-10-11T03:17:36.222Z,27.70
2022-10-11T03:17:50.555Z,26.35
2022-10-11T03:18:03.267Z,26.55
2022-10-11T03:18:16.031Z,25.67
2022-10-11T03:18:28.730Z,25.63
2022-10-11T03:18:41.362Z,26.02
2022-10-11T03:18:54.169Z,25.50
2022-10-11T03:19:06.852Z,24.27
2022-10-11T03:19:20.490Z,26.42
2022-10-11T03:19:33.699Z,27.02
2022-10-11T03:19:46.510Z,27.05
2022-10-11T03:19:59.211Z,26.10
2022-10-11T03:20:12.219Z,25.02
2022-10-11T03:20:25.283Z,25.25
2022-10-11T03:20:37.902Z,25.92
2022-10-11T03:20:50.482Z,26.33
2022-10-11T03:21:04.082Z,28.35
2022-10-11T03:21:16.766Z,27.02
2022-10-11T03:21:29.430Z,24.70
2022-10-11T03:21:42.472Z,25.17
2022-10-11T03:21:55.070Z,26.85
2022-10-11T03:22:07.691Z,26.27
2022-10-11T03:22:20.309Z,26.83
2022-10-11T03:22:32.917Z,26.10
2022-10-11T03:22:46.554Z,27.75
2022-10-11T03:22:59.240Z,29.27
2022-10-11T03:23:12.651Z,29.30
2022-10-11T03:23:25.383Z,27.58
2022-10-11T03:23:38.105Z,25.63
2022-10-11T03:23:50.762Z,26.45
2022-10-11T03:24:04.122Z,28.10
2022-10-11T03:24:17.726Z,29.30
2022-10-11T03:24:30.314Z,27.55
2022-10-11T03:24:42.968Z,26.63
2022-10-11T03:24:59.676Z,25.25
2022-10-11T03:25:15.381Z,25.40
2022-10-11T03:25:28.499Z,25.58
2022-10-11T03:25:41.118Z,25.50
2022-10-11T03:25:54.742Z,26.02
2022-10-11T03:26:07.846Z,26.52
2022-10-11T03:26:20.978Z,28.90
2022-10-11T03:26:33.596Z,28.55
2022-10-11T03:26:46.198Z,25.10
2022-10-11T03:26:58.862Z,23.92